createdAt,value
2022-08-26T00:03:36.679Z,21.10
2022-08-26T00:08:39.433Z,21.10
2022-08-26T00:13:48.586Z,21.00
2022-08-26T00:18:53.171Z,21.00
2022-08-26T00:23:55.704Z,21.00
2022-08-26T00:28:58.214Z,20.90
2022-08-26T00:34:00.732Z,20.90
2022-08-26T00:39:04.806Z,20.90
2022-08-26T00:44:11.190Z,20.90
2022-08-26T00:49:21.824Z,20.80
2022-08-26T00:54:28.152Z,20.80
2022-08-26T00:59:33.150Z,20.80
2022-08-26T01:04:37.685Z,20.80
2022-08-26T01:09:40.154Z,20.70
2022-08-26T01:14:42.706Z,20.70
2022-08-26T01:19:58.831Z,20.70
2022-08-26T01:25:03.680Z,20.70
2022-08-26T01:30:07.071Z,20.70
2022-08-26T01:35:09.751Z,20.60
2022-08-26T01:40:19.066Z,20.60
2022-08-26T01:45:28.751Z,20.60
2022-08-26T01:50:34.948Z,20.50
2022-08-26T01:55:39.806Z,20.50
2022-08-26T02:00:44.204Z,20.60
2022-08-26T02:05:54.869Z,20.40
2022-08-26T02:10:57.614Z,20.40
2022-08-26T02:16:03.876Z,20.40
2022-08-26T02:21:08.097Z,20.40
2022-08-26T02:26:17.907Z,20.30
2022-08-26T02:31:20.621Z,20.30
2022-08-26T02:36:28.524Z,20.30
2022-08-26T02:41:31.248Z,20.20
2022-08-26T02:46:35.622Z,20.20
2022-08-26T02:51:40.281Z,20.20
2022-08-26T02:56:45.701Z,20.20
2022-08-26T03:01:49.640Z,20.10
2022-08-26T03:06:53.040Z,20.10
2022-08-26T03:11:58.305Z,20.10
2022-08-26T03:17:01.095Z,20.10
2022-08-26T03:22:04.828Z,20.00
2022-08-26T03:27:07.530Z,20.00
2022-08-26T03:32:10.676Z,20.00
2022-08-26T03:37:13.574Z,19.90
2022-08-26T03:42:16.841Z,19.80
2022-08-26T03:47:19.494Z,19.90
2022-08-26T03:52:21.994Z,19.90
2022-08-26T03:57:24.928Z,20.00
2022-08-26T04:02:27.728Z,20.00
2022-08-26T04:07:30.386Z,20.00
2022-08-26T04:12:37.279Z,20.00
2022-08-26T04:17:39.860Z,19.90
2022-08-26T04:22:42.445Z,20.00
2022-08-26T04:27:44.884Z,20.00
2022-08-26T04:32:50.735Z,20.00
2022-08-26T04:37:53.363Z,20.00
2022-08-26T04:42:56.776Z,20.10
2022-08-26T04:48:00.147Z,20.10
2022-08-26T04:53:04.957Z,20.20
2022-08-26T04:58:10.294Z,20.20
2022-08-26T05:03:13.584Z,20.30
2022-08-26T05:08:17.087Z,20.40
2022-08-26T05:13:21.596Z,20.50
2022-08-26T05:18:30.058Z,20.70
2022-08-26T05:23:35.947Z,20.90
2022-08-26T05:28:38.408Z,21.10
2022-08-26T05:33:43.412Z,21.40
2022-08-26T05:38:46.429Z,21.40
2022-08-26T05:43:48.955Z,21.80
2022-08-26T05:48:51.832Z,21.90
2022-08-26T05:53:56.127Z,22.30
2022-08-26T05:58:59.718Z,22.60
2022-08-26T06:04:02.666Z,22.60
2022-08-26T06:09:10.805Z,22.90
2022-08-26T06:14:13.758Z,22.70
2022-08-26T06:19:17.287Z,22.90
2022-08-26T06:24:38.254Z,23.10
2022-08-26T06:29:41.831Z,23.30
2022-08-26T06:34:44.689Z,23.50
2022-08-26T06:39:47.152Z,23.70
2022-08-26T06:44:53.733Z,24.10
2022-08-26T06:49:56.540Z,23.90
2022-08-26T06:54:59.402Z,24.40
2022-08-26T07:00:02.391Z,24.50
2022-08-26T07:05:05.958Z,24.70
2022-08-26T07:10:10.701Z,25.00
2022-08-26T07:15:13.502Z,25.30
2022-08-26T07:20:18.130Z,25.50
2022-08-26T07:25:21.841Z,25.40
2022-08-26T07:30:25.757Z,25.60
2022-08-26T07:35:28.262Z,25.80
2022-08-26T07:40:31.594Z,26.10
2022-08-26T07:45:34.459Z,26.10
2022-08-26T07:50:49.217Z,26.30
2022-08-26T07:55:52.851Z,26.30
2022-08-26T08:00:56.097Z,26.50
2022-08-26T08:05:58.544Z,26.40
2022-08-26T08:11:02.024Z,26.60
2022-08-26T08:16:06.401Z,26.70
2022-08-26T08:21:21.643Z,27.00
2022-08-26T08:26:26.622Z,26.90
2022-08-26T08:36:54.444Z,27.20
2022-08-26T08:42:27.706Z,27.60
2022-08-26T08:47:35.606Z,27.70
2022-08-26T08:52:40.862Z,28.10
2022-08-26T08:58:06.609Z,28.30
2022-08-26T09:03:30.482Z,28.70
2022-08-26T09:08:36.370Z,28.30
2022-08-26T09:13:44.038Z,28.40
2022-08-26T09:18:59.263Z,28.70
2022-08-26T09:24:01.804Z,29.00
2022-08-26T09:29:08.994Z,29.00
2022-08-26T09:34:23.117Z,29.30
2022-08-26T09:39:28.331Z,29.40
2022-08-26T09:44:31.308Z,29.70
2022-08-26T09:49:41.256Z,29.60
2022-08-26T09:54:46.092Z,29.80
2022-08-26T09:59:51.477Z,29.80
2022-08-26T10:04:57.005Z,29.70
2022-08-26T10:09:59.735Z,29.80
2022-08-26T10:15:10.844Z,29.60
2022-08-26T10:20:23.090Z,29.90
2022-08-26T10:25:31.713Z,30.10
2022-08-26T10:30:42.964Z,30.20
2022-08-26T10:35:52.771Z,30.20
2022-08-26T10:40:58.609Z,30.50
2022-08-26T10:46:08.386Z,30.50
2022-08-26T10:51:13.321Z,30.60
2022-08-26T10:56:48.865Z,30.70
2022-08-26T11:02:08.446Z,30.70
2022-08-26T11:07:36.808Z,30.80
2022-08-26T11:12:42.215Z,30.80
2022-08-26T11:17:44.872Z,30.90
2022-08-26T11:22:47.782Z,31.10
2022-08-26T11:27:53.161Z,31.40
2022-08-26T11:32:59.455Z,31.10
2022-08-26T11:38:28.972Z,31.30
2022-08-26T11:43:32.706Z,31.30
2022-08-26T11:48:37.110Z,31.30
2022-08-26T11:53:42.780Z,31.30
2022-08-26T11:58:48.103Z,31.50
2022-08-26T12:03:52.649Z,31.40
2022-08-26T12:08:59.242Z,31.50
2022-08-26T12:14:08.186Z,31.40
2022-08-26T12:19:32.994Z,31.40
2022-08-26T12:24:35.929Z,31.40
2022-08-26T12:29:38.406Z,31.40
2022-08-26T12:34:43.395Z,31.40
2022-08-26T12:39:46.061Z,31.50
2022-08-26T12:44:55.663Z,31.60
2022-08-26T12:50:18.884Z,31.70
2022-08-26T12:55:41.428Z,31.70
2022-08-26T13:00:49.137Z,31.80
2022-08-26T13:05:51.767Z,31.90
2022-08-26T13:11:25.688Z,31.90
2022-08-26T13:16:28.942Z,31.90
2022-08-26T13:21:37.319Z,31.70
2022-08-26T13:26:44.659Z,31.70
2022-08-26T13:31:47.722Z,31.90
2022-08-26T13:36:54.288Z,31.70
2022-08-26T13:41:56.835Z,31.60
2022-08-26T13:46:59.846Z,31.90
2022-08-26T13:52:05.825Z,31.90
2022-08-26T13:57:08.383Z,31.90
2022-08-26T14:02:11.107Z,31.70
2022-08-26T14:07:13.672Z,31.90
2022-08-26T14:12:17.755Z,31.90
2022-08-26T14:17:22.639Z,31.60
2022-08-26T14:22:25.333Z,31.60
2022-08-26T14:27:27.900Z,31.60
2022-08-26T14:32:32.656Z,31.50
2022-08-26T14:37:35.202Z,31.50
2022-08-26T14:42:37.740Z,31.30
2022-08-26T14:47:41.232Z,31.30
2022-08-26T14:53:03.621Z,31.00
2022-08-26T14:58:06.716Z,31.10
2022-08-26T15:03:09.482Z,31.00
2022-08-26T15:08:13.310Z,30.90
2022-08-26T15:13:15.830Z,30.90
2022-08-26T15:18:18.383Z,30.80
2022-08-26T15:23:20.886Z,30.60
2022-08-26T15:28:23.898Z,30.60
2022-08-26T15:33:26.481Z,30.40
2022-08-26T15:38:33.860Z,30.30
2022-08-26T15:43:39.525Z,30.20
2022-08-26T15:48:42.115Z,30.10
2022-08-26T15:53:45.542Z,30.00
2022-08-26T15:58:48.755Z,29.90
2022-08-26T16:03:52.642Z,29.80
2022-08-26T16:08:56.467Z,29.70
2022-08-26T16:13:59.011Z,29.60
2022-08-26T16:19:06.830Z,29.40
2022-08-26T16:24:10.550Z,29.20
2022-08-26T16:29:14.915Z,29.10
2022-08-26T16:34:17.397Z,29.00
2022-08-26T16:39:19.907Z,28.80
2022-08-26T16:44:22.487Z,28.70
2022-08-26T16:49:25.036Z,28.60
2022-08-26T16:54:27.689Z,28.40
2022-08-26T16:59:32.992Z,28.30
2022-08-26T17:04:35.864Z,28.10
2022-08-26T17:09:39.563Z,28.00
2022-08-26T17:14:44.059Z,27.80
2022-08-26T17:19:48.627Z,27.70
2022-08-26T17:24:51.165Z,27.40
2022-08-26T17:29:53.685Z,27.30
2022-08-26T17:34:56.121Z,27.10
2022-08-26T17:39:58.633Z,26.80
2022-08-26T17:45:01.740Z,26.60
2022-08-26T17:50:06.423Z,26.40
2022-08-26T17:55:11.202Z,26.10
2022-08-26T18:00:18.575Z,25.90
2022-08-26T18:05:21.582Z,25.80
2022-08-26T18:10:25.650Z,25.50
2022-08-26T18:15:28.101Z,25.20
2022-08-26T18:20:30.549Z,25.00
2022-08-26T18:25:33.382Z,24.80
2022-08-26T18:30:36.009Z,24.60
2022-08-26T18:35:45.405Z,24.40
2022-08-26T18:40:48.027Z,24.30
2022-08-26T18:46:00.464Z,24.10
2022-08-26T18:51:03.922Z,23.90
2022-08-26T18:56:06.498Z,23.80
2022-08-26T19:01:08.996Z,23.60
2022-08-26T19:06:21.601Z,23.50
2022-08-26T19:11:32.676Z,23.40
2022-08-26T19:16:44.863Z,23.30
2022-08-26T19:21:47.769Z,23.20
2022-08-26T19:26:57.840Z,23.10
2022-08-26T19:32:01.973Z,23.00
2022-08-26T19:37:04.715Z,23.00
2022-08-26T19:42:07.373Z,23.00
2022-08-26T19:47:11.161Z,23.00
2022-08-26T19:52:13.949Z,22.90
2022-08-26T19:57:16.864Z,22.80
2022-08-26T20:02:19.842Z,22.80
2022-08-26T20:07:22.945Z,22.60
2022-08-26T20:12:27.622Z,22.40
2022-08-26T20:17:30.271Z,22.30
2022-08-26T20:22:33.647Z,22.30
2022-08-26T20:27:38.413Z,22.20
2022-08-26T20:32:42.274Z,22.20
2022-08-26T20:37:44.925Z,22.10
2022-08-26T20:42:47.451Z,22.00
2022-08-26T20:47:49.975Z,21.90
2022-08-26T20:52:53.663Z,21.90
2022-08-26T20:57:56.176Z,21.80
2022-08-26T21:03:00.671Z,21.80
2022-08-26T21:08:03.673Z,21.80
2022-08-26T21:13:07.805Z,21.70
2022-08-26T21:18:11.400Z,21.70
2022-08-26T21:23:14.091Z,21.70
2022-08-26T21:28:17.339Z,21.60
2022-08-26T21:33:19.859Z,21.50
2022-08-26T21:38:22.882Z,21.50
2022-08-26T21:43:35.037Z,21.30
2022-08-26T21:48:39.815Z,21.30
2022-08-26T21:53:43.102Z,21.30
2022-08-26T21:58:46.111Z,21.30
2022-08-26T22:03:49.866Z,21.20
2022-08-26T22:08:53.530Z,21.30
2022-08-26T22:13:57.002Z,21.20
2022-08-26T22:18:59.856Z,21.20
2022-08-26T22:24:03.593Z,21.10
2022-08-26T22:29:07.546Z,21.10
2022-08-26T22:34:13.354Z,21.00
2022-08-26T22:39:19.352Z,21.00
2022-08-26T22:44:22.740Z,20.90
2022-08-26T22:49:25.271Z,20.90
2022-08-26T22:54:28.150Z,20.80
2022-08-26T22:59:30.673Z,20.70
2022-08-26T23:04:33.179Z,20.70
2022-08-26T23:09:37.579Z,20.60
2022-08-26T23:14:41.324Z,20.60
2022-08-26T23:19:43.918Z,20.60
2022-08-26T23:24:46.418Z,20.60
2022-08-26T23:29:49.005Z,20.50
2022-08-26T23:34:58.778Z,20.30
2022-08-26T23:40:33.607Z,20.30
2022-08-26T23:45:36.337Z,20.30
2022-08-26T23:50:57.208Z,20.20
2022-08-26T23:55:59.724Z,20.20
